ROA051 SVMG-SVMI
Flight info
| Callsign | ROA051 |
|---|---|
| Flight time | 0h 44m |
| Altitude | 24000 |
| Route | ESPEP SARNI A561 CBC NETSI1 |
| Aircraft | B737/M-SDE2E3FGHIRWXY/LB1 |
Departure
| Time | 2026-04-27 20:47 |
|---|---|
| Airport | Del Caribe Santiago Mariño International Airport (SVMG) |
Arrival
| Time | 2026-04-27 21:32 |
|---|---|
| Airport | Maiquetía Simón Bolívar International Airport (SVMI) |
| Time | Latitude | Longitude | Altitude | Speed | Heading |
|---|---|---|---|---|---|
| 2026-04-27 20:00 | 10.91583 | -63.96906 | 51 ft | 0 kts | 348° |
| 2026-04-27 20:29 | 10.91582 | -63.96906 | 53 ft | 2 kts | 348° |
| 2026-04-27 20:30 | 10.91562 | -63.96902 | 52 ft | 3 kts | 349° |
| 2026-04-27 20:30 | 10.91542 | -63.96898 | 48 ft | 3 kts | 348° |
| 2026-04-27 20:30 | 10.91523 | -63.96893 | 54 ft | 2 kts | 341° |
| 2026-04-27 20:30 | 10.91514 | -63.96889 | 48 ft | 1 kts | 310° |
| 2026-04-27 20:31 | 10.91509 | -63.96881 | 44 ft | 1 kts | 276° |
| 2026-04-27 20:31 | 10.91509 | -63.96873 | 49 ft | 1 kts | 263° |
| 2026-04-27 20:31 | 10.91510 | -63.96864 | 54 ft | 1 kts | 259° |
| 2026-04-27 20:37 | 10.91508 | -63.96878 | 49 ft | 4 kts | 259° |
| 2026-04-27 20:37 | 10.91499 | -63.96919 | 53 ft | 8 kts | 258° |
| 2026-04-27 20:38 | 10.91480 | -63.96984 | 51 ft | 10 kts | 239° |
| 2026-04-27 20:38 | 10.91420 | -63.97012 | 53 ft | 10 kts | 182° |
| 2026-04-27 20:38 | 10.91362 | -63.97036 | 52 ft | 10 kts | 237° |
| 2026-04-27 20:38 | 10.91345 | -63.97100 | 53 ft | 9 kts | 258° |
| 2026-04-27 20:39 | 10.91332 | -63.97164 | 52 ft | 9 kts | 258° |
| 2026-04-27 20:39 | 10.91319 | -63.97226 | 51 ft | 9 kts | 257° |
| 2026-04-27 20:39 | 10.91306 | -63.97287 | 52 ft | 9 kts | 258° |
| 2026-04-27 20:39 | 10.91294 | -63.97345 | 56 ft | 8 kts | 258° |
| 2026-04-27 20:40 | 10.91283 | -63.97402 | 57 ft | 8 kts | 258° |
| 2026-04-27 20:40 | 10.91272 | -63.97457 | 58 ft | 8 kts | 258° |
| 2026-04-27 20:40 | 10.91261 | -63.97511 | 55 ft | 8 kts | 258° |
| 2026-04-27 20:40 | 10.91251 | -63.97562 | 62 ft | 7 kts | 258° |
| 2026-04-27 20:41 | 10.91240 | -63.97611 | 64 ft | 7 kts | 258° |
| 2026-04-27 20:41 | 10.91229 | -63.97663 | 65 ft | 8 kts | 257° |
| 2026-04-27 20:41 | 10.91216 | -63.97723 | 63 ft | 10 kts | 257° |
| 2026-04-27 20:41 | 10.91203 | -63.97795 | 63 ft | 11 kts | 259° |
| 2026-04-27 20:42 | 10.91187 | -63.97872 | 70 ft | 11 kts | 258° |
| 2026-04-27 20:42 | 10.91177 | -63.97923 | 69 ft | 11 kts | 258° |
| 2026-04-27 20:42 | 10.91163 | -63.97998 | 68 ft | 11 kts | 259° |
| 2026-04-27 20:42 | 10.91147 | -63.98070 | 87 ft | 10 kts | 257° |
| 2026-04-27 20:43 | 10.91116 | -63.98130 | 86 ft | 10 kts | 204° |
| 2026-04-27 20:43 | 10.91035 | -63.98116 | 83 ft | 5 kts | 136° |
| 2026-04-27 20:43 | 10.91034 | -63.98116 | 83 ft | 0 kts | 134° |
| 2026-04-27 20:46 | 10.91013 | -63.98093 | 73 ft | 9 kts | 133° |
| 2026-04-27 20:46 | 10.90978 | -63.98049 | 68 ft | 3 kts | 84° |
| 2026-04-27 20:46 | 10.90979 | -63.98047 | 69 ft | 0 kts | 77° |
| 2026-04-27 20:47 | 10.90987 | -63.98010 | 76 ft | 14 kts | 78° |
| 2026-04-27 20:47 | 10.91051 | -63.97698 | 65 ft | 82 kts | 78° |
| 2026-04-27 20:47 | 10.91214 | -63.96912 | 109 ft | 137 kts | 78° |
| 2026-04-27 20:47 | 10.91341 | -63.95938 | 776 ft | 137 kts | 83° |
| 2026-04-27 20:48 | 10.91384 | -63.94953 | 1514 ft | 144 kts | 85° |
| 2026-04-27 20:48 | 10.91550 | -63.93933 | 2178 ft | 150 kts | 75° |
| 2026-04-27 20:48 | 10.91848 | -63.92798 | 2490 ft | 182 kts | 78° |
| 2026-04-27 20:48 | 10.92147 | -63.91452 | 2737 ft | 208 kts | 84° |
| 2026-04-27 20:49 | 10.91969 | -63.89949 | 3216 ft | 225 kts | 108° |
| 2026-04-27 20:49 | 10.91168 | -63.88495 | 3729 ft | 246 kts | 130° |
| 2026-04-27 20:49 | 10.89798 | -63.87417 | 4523 ft | 256 kts | 152° |
| 2026-04-27 20:49 | 10.88052 | -63.87014 | 5426 ft | 263 kts | 177° |
| 2026-04-27 20:50 | 10.86241 | -63.87446 | 6233 ft | 277 kts | 204° |
| 2026-04-27 20:50 | 10.84753 | -63.88745 | 7058 ft | 288 kts | 229° |
| 2026-04-27 20:50 | 10.83584 | -63.90429 | 7933 ft | 295 kts | 233° |
| 2026-04-27 20:50 | 10.82434 | -63.92179 | 8816 ft | 300 kts | 233° |
| 2026-04-27 20:51 | 10.81279 | -63.93972 | 9750 ft | 305 kts | 233° |
| 2026-04-27 20:51 | 10.80783 | -63.94745 | 10121 ft | 307 kts | 233° |
| 2026-04-27 20:51 | 10.79586 | -63.96611 | 10649 ft | 327 kts | 233° |
| 2026-04-27 20:51 | 10.78304 | -63.98604 | 11146 ft | 343 kts | 234° |
| 2026-04-27 20:52 | 10.77031 | -64.00676 | 11971 ft | 349 kts | 241° |
| 2026-04-27 20:52 | 10.76336 | -64.03060 | 12890 ft | 356 kts | 262° |
| 2026-04-27 20:52 | 10.76162 | -64.05576 | 13820 ft | 359 kts | 265° |
| 2026-04-27 20:52 | 10.76056 | -64.08129 | 14557 ft | 363 kts | 266° |
| 2026-04-27 20:53 | 10.75966 | -64.10708 | 15335 ft | 367 kts | 266° |
| 2026-04-27 20:53 | 10.75871 | -64.13306 | 16158 ft | 369 kts | 265° |
| 2026-04-27 20:53 | 10.75766 | -64.15919 | 16954 ft | 372 kts | 265° |
| 2026-04-27 20:53 | 10.75654 | -64.18526 | 17717 ft | 375 kts | 265° |
| 2026-04-27 20:54 | 10.75407 | -64.23889 | 19072 ft | 383 kts | 265° |
| 2026-04-27 20:54 | 10.75279 | -64.26603 | 19729 ft | 386 kts | 265° |
| 2026-04-27 20:54 | 10.75149 | -64.29340 | 20380 ft | 389 kts | 265° |
| 2026-04-27 20:55 | 10.75016 | -64.32105 | 21013 ft | 393 kts | 265° |
| 2026-04-27 20:55 | 10.74883 | -64.34890 | 21632 ft | 396 kts | 265° |
| 2026-04-27 20:55 | 10.74747 | -64.37699 | 22234 ft | 400 kts | 265° |
| 2026-04-27 20:55 | 10.74613 | -64.40498 | 22821 ft | 403 kts | 265° |
| 2026-04-27 20:56 | 10.74476 | -64.43338 | 23440 ft | 405 kts | 265° |
| 2026-04-27 20:56 | 10.74337 | -64.46210 | 23873 ft | 407 kts | 265° |
| 2026-04-27 20:56 | 10.74197 | -64.49099 | 23907 ft | 412 kts | 265° |
| 2026-04-27 20:56 | 10.74056 | -64.52011 | 23928 ft | 413 kts | 265° |
| 2026-04-27 20:57 | 10.73915 | -64.54926 | 23925 ft | 411 kts | 265° |
| 2026-04-27 20:57 | 10.73775 | -64.57824 | 23932 ft | 410 kts | 265° |
| 2026-04-27 20:57 | 10.73633 | -64.60718 | 23934 ft | 410 kts | 265° |
| 2026-04-27 20:57 | 10.73419 | -64.63610 | 23931 ft | 409 kts | 262° |
| 2026-04-27 20:58 | 10.73081 | -64.66482 | 23936 ft | 409 kts | 260° |
| 2026-04-27 20:58 | 10.72703 | -64.69306 | 23936 ft | 409 kts | 260° |
| 2026-04-27 20:58 | 10.72312 | -64.72174 | 23938 ft | 410 kts | 260° |
| 2026-04-27 20:58 | 10.71927 | -64.75043 | 23934 ft | 410 kts | 260° |
| 2026-04-27 20:59 | 10.71553 | -64.77917 | 23932 ft | 410 kts | 261° |
| 2026-04-27 20:59 | 10.71186 | -64.80794 | 23933 ft | 410 kts | 261° |
| 2026-04-27 20:59 | 10.70824 | -64.83672 | 23933 ft | 411 kts | 261° |
| 2026-04-27 20:59 | 10.70463 | -64.86554 | 23934 ft | 411 kts | 261° |
| 2026-04-27 21:00 | 10.70109 | -64.89395 | 23932 ft | 411 kts | 261° |
| 2026-04-27 21:00 | 10.69750 | -64.92273 | 23926 ft | 411 kts | 261° |
| 2026-04-27 21:00 | 10.69395 | -64.95113 | 23929 ft | 411 kts | 261° |
| 2026-04-27 21:00 | 10.69034 | -64.97995 | 23930 ft | 410 kts | 261° |
| 2026-04-27 21:01 | 10.68673 | -65.00871 | 23930 ft | 410 kts | 261° |
| 2026-04-27 21:01 | 10.68312 | -65.03749 | 23934 ft | 410 kts | 261° |
| 2026-04-27 21:01 | 10.67951 | -65.06625 | 23927 ft | 411 kts | 261° |
| 2026-04-27 21:01 | 10.67589 | -65.09506 | 23928 ft | 410 kts | 261° |
| 2026-04-27 21:02 | 10.67227 | -65.12384 | 23925 ft | 410 kts | 261° |
| 2026-04-27 21:02 | 10.66884 | -65.15225 | 23928 ft | 411 kts | 261° |
| 2026-04-27 21:02 | 10.66572 | -65.18108 | 23925 ft | 411 kts | 262° |
| 2026-04-27 21:02 | 10.66276 | -65.20995 | 23926 ft | 411 kts | 262° |
| 2026-04-27 21:03 | 10.65983 | -65.23878 | 23926 ft | 411 kts | 262° |
| 2026-04-27 21:03 | 10.65689 | -65.26771 | 23928 ft | 411 kts | 262° |
| 2026-04-27 21:03 | 10.65391 | -65.29660 | 23925 ft | 411 kts | 262° |
| 2026-04-27 21:03 | 10.65092 | -65.32547 | 23928 ft | 411 kts | 262° |
| 2026-04-27 21:04 | 10.64790 | -65.35435 | 23927 ft | 411 kts | 262° |
| 2026-04-27 21:04 | 10.64487 | -65.38319 | 23927 ft | 411 kts | 262° |
| 2026-04-27 21:04 | 10.64183 | -65.41208 | 23928 ft | 411 kts | 262° |
| 2026-04-27 21:04 | 10.63879 | -65.44096 | 23926 ft | 411 kts | 262° |
| 2026-04-27 21:05 | 10.63574 | -65.46982 | 23926 ft | 411 kts | 262° |
| 2026-04-27 21:05 | 10.63274 | -65.49829 | 23925 ft | 411 kts | 262° |
| 2026-04-27 21:05 | 10.62969 | -65.52712 | 23927 ft | 411 kts | 262° |
| 2026-04-27 21:05 | 10.62664 | -65.55598 | 23926 ft | 410 kts | 262° |
| 2026-04-27 21:06 | 10.62359 | -65.58479 | 23924 ft | 410 kts | 262° |
| 2026-04-27 21:06 | 10.62054 | -65.61362 | 23927 ft | 410 kts | 262° |
| 2026-04-27 21:06 | 10.61748 | -65.64245 | 23925 ft | 410 kts | 262° |
| 2026-04-27 21:06 | 10.61443 | -65.67120 | 23926 ft | 410 kts | 262° |
| 2026-04-27 21:07 | 10.61138 | -65.69995 | 23926 ft | 409 kts | 262° |
| 2026-04-27 21:07 | 10.60827 | -65.72915 | 23926 ft | 409 kts | 262° |
| 2026-04-27 21:07 | 10.60521 | -65.75792 | 23929 ft | 409 kts | 262° |
| 2026-04-27 21:07 | 10.60219 | -65.78628 | 23927 ft | 409 kts | 262° |
| 2026-04-27 21:08 | 10.59913 | -65.81504 | 23925 ft | 409 kts | 262° |
| 2026-04-27 21:08 | 10.59606 | -65.84378 | 23927 ft | 409 kts | 262° |
| 2026-04-27 21:08 | 10.59299 | -65.87257 | 23925 ft | 410 kts | 262° |
| 2026-04-27 21:08 | 10.58992 | -65.90136 | 23926 ft | 410 kts | 262° |
| 2026-04-27 21:09 | 10.58684 | -65.93013 | 23922 ft | 410 kts | 262° |
| 2026-04-27 21:09 | 10.58376 | -65.95895 | 23930 ft | 410 kts | 262° |
| 2026-04-27 21:09 | 10.58067 | -65.98776 | 23930 ft | 410 kts | 262° |
| 2026-04-27 21:09 | 10.57764 | -66.01618 | 23927 ft | 410 kts | 263° |
| 2026-04-27 21:10 | 10.57907 | -66.04521 | 23927 ft | 415 kts | 281° |
| 2026-04-27 21:10 | 10.58923 | -66.07264 | 23922 ft | 419 kts | 299° |
| 2026-04-27 21:10 | 10.60574 | -66.09712 | 23942 ft | 420 kts | 304° |
| 2026-04-27 21:10 | 10.62315 | -66.12094 | 23933 ft | 420 kts | 305° |
| 2026-04-27 21:11 | 10.64068 | -66.14474 | 23931 ft | 421 kts | 305° |
| 2026-04-27 21:11 | 10.65804 | -66.16864 | 23927 ft | 421 kts | 304° |
| 2026-04-27 21:11 | 10.67528 | -66.19273 | 23929 ft | 421 kts | 304° |
| 2026-04-27 21:11 | 10.69207 | -66.21640 | 23925 ft | 418 kts | 304° |
| 2026-04-27 21:12 | 10.70899 | -66.24031 | 23922 ft | 412 kts | 304° |
| 2026-04-27 21:12 | 10.72570 | -66.26388 | 23923 ft | 410 kts | 304° |
| 2026-04-27 21:12 | 10.74243 | -66.28739 | 23936 ft | 411 kts | 304° |
| 2026-04-27 21:12 | 10.75924 | -66.31099 | 23880 ft | 413 kts | 304° |
| 2026-04-27 21:13 | 10.77618 | -66.33479 | 23409 ft | 416 kts | 304° |
| 2026-04-27 21:13 | 10.79307 | -66.35855 | 22828 ft | 413 kts | 303° |
| 2026-04-27 21:13 | 10.80618 | -66.38409 | 22249 ft | 404 kts | 285° |
| 2026-04-27 21:13 | 10.81113 | -66.41174 | 21705 ft | 395 kts | 269° |
| 2026-04-27 21:14 | 10.80861 | -66.43921 | 21164 ft | 387 kts | 258° |
| 2026-04-27 21:14 | 10.80401 | -66.46603 | 20601 ft | 384 kts | 257° |
| 2026-04-27 21:14 | 10.79912 | -66.49230 | 20047 ft | 381 kts | 257° |
| 2026-04-27 21:14 | 10.79419 | -66.51870 | 19495 ft | 379 kts | 257° |
| 2026-04-27 21:15 | 10.78937 | -66.54499 | 18931 ft | 377 kts | 257° |
| 2026-04-27 21:15 | 10.78468 | -66.57116 | 18383 ft | 375 kts | 257° |
| 2026-04-27 21:15 | 10.78011 | -66.59715 | 17771 ft | 373 kts | 258° |
| 2026-04-27 21:15 | 10.77559 | -66.62305 | 17198 ft | 370 kts | 257° |
| 2026-04-27 21:16 | 10.77114 | -66.64870 | 16644 ft | 367 kts | 257° |
| 2026-04-27 21:16 | 10.76674 | -66.67412 | 16097 ft | 364 kts | 257° |
| 2026-04-27 21:16 | 10.76238 | -66.69932 | 15558 ft | 361 kts | 257° |
| 2026-04-27 21:16 | 10.75803 | -66.72445 | 15002 ft | 359 kts | 257° |
| 2026-04-27 21:17 | 10.75370 | -66.74940 | 14456 ft | 358 kts | 257° |
| 2026-04-27 21:17 | 10.74939 | -66.77429 | 13903 ft | 356 kts | 257° |
| 2026-04-27 21:17 | 10.74509 | -66.79906 | 13314 ft | 355 kts | 257° |
| 2026-04-27 21:17 | 10.74081 | -66.82370 | 12752 ft | 353 kts | 257° |
| 2026-04-27 21:18 | 10.73656 | -66.84815 | 12207 ft | 350 kts | 257° |
| 2026-04-27 21:18 | 10.73234 | -66.87244 | 11693 ft | 347 kts | 257° |
| 2026-04-27 21:18 | 10.72823 | -66.89614 | 11189 ft | 344 kts | 258° |
| 2026-04-27 21:18 | 10.72586 | -66.92038 | 10598 ft | 346 kts | 266° |
| 2026-04-27 21:19 | 10.72578 | -66.94464 | 10347 ft | 336 kts | 269° |
| 2026-04-27 21:19 | 10.72624 | -66.96801 | 10154 ft | 325 kts | 269° |
| 2026-04-27 21:19 | 10.72667 | -66.99056 | 9973 ft | 314 kts | 269° |
| 2026-04-27 21:20 | 10.72707 | -67.03394 | 9241 ft | 307 kts | 268° |
| 2026-04-27 21:20 | 10.72711 | -67.05571 | 8774 ft | 308 kts | 268° |
| 2026-04-27 21:20 | 10.72712 | -67.07737 | 8383 ft | 305 kts | 268° |
| 2026-04-27 21:20 | 10.72709 | -67.09886 | 7984 ft | 303 kts | 268° |
| 2026-04-27 21:21 | 10.72706 | -67.11997 | 7602 ft | 301 kts | 268° |
| 2026-04-27 21:21 | 10.72702 | -67.14104 | 7211 ft | 294 kts | 268° |
| 2026-04-27 21:21 | 10.72698 | -67.16152 | 6833 ft | 285 kts | 268° |
| 2026-04-27 21:21 | 10.72694 | -67.18192 | 6486 ft | 284 kts | 268° |
| 2026-04-27 21:22 | 10.72689 | -67.20198 | 6080 ft | 285 kts | 268° |
| 2026-04-27 21:22 | 10.72691 | -67.22186 | 5681 ft | 285 kts | 269° |
| 2026-04-27 21:22 | 10.72703 | -67.24199 | 5296 ft | 284 kts | 269° |
| 2026-04-27 21:22 | 10.72662 | -67.26184 | 4881 ft | 276 kts | 259° |
| 2026-04-27 21:23 | 10.71966 | -67.27914 | 4698 ft | 254 kts | 231° |
| 2026-04-27 21:23 | 10.70728 | -67.29045 | 4564 ft | 228 kts | 207° |
| 2026-04-27 21:23 | 10.69321 | -67.29548 | 4429 ft | 204 kts | 185° |
| 2026-04-27 21:23 | 10.67991 | -67.29531 | 4298 ft | 182 kts | 167° |
| 2026-04-27 21:24 | 10.66842 | -67.29175 | 4137 ft | 166 kts | 154° |
| 2026-04-27 21:24 | 10.65826 | -67.28616 | 4053 ft | 166 kts | 142° |
| 2026-04-27 21:24 | 10.65026 | -67.27800 | 4044 ft | 163 kts | 127° |
| 2026-04-27 21:24 | 10.64343 | -67.26876 | 4018 ft | 167 kts | 125° |
| 2026-04-27 21:25 | 10.63662 | -67.25929 | 4000 ft | 165 kts | 125° |
| 2026-04-27 21:25 | 10.62998 | -67.25000 | 3994 ft | 160 kts | 125° |
| 2026-04-27 21:25 | 10.62353 | -67.24092 | 3995 ft | 158 kts | 125° |
| 2026-04-27 21:25 | 10.61697 | -67.23166 | 4004 ft | 164 kts | 125° |
| 2026-04-27 21:26 | 10.61026 | -67.22224 | 4009 ft | 164 kts | 125° |
| 2026-04-27 21:26 | 10.60362 | -67.21291 | 4002 ft | 160 kts | 126° |
| 2026-04-27 21:26 | 10.59815 | -67.20348 | 3954 ft | 154 kts | 102° |
| 2026-04-27 21:26 | 10.59828 | -67.19255 | 3787 ft | 154 kts | 89° |
| 2026-04-27 21:27 | 10.59849 | -67.18163 | 3588 ft | 157 kts | 90° |
| 2026-04-27 21:27 | 10.59863 | -67.17065 | 3389 ft | 152 kts | 90° |
| 2026-04-27 21:27 | 10.59880 | -67.16007 | 3133 ft | 145 kts | 89° |
| 2026-04-27 21:27 | 10.59899 | -67.15007 | 2935 ft | 139 kts | 89° |
| 2026-04-27 21:28 | 10.59920 | -67.14040 | 2752 ft | 135 kts | 89° |
| 2026-04-27 21:28 | 10.59932 | -67.13352 | 2649 ft | 138 kts | 89° |
| 2026-04-27 21:28 | 10.59939 | -67.12342 | 2337 ft | 145 kts | 89° |
| 2026-04-27 21:28 | 10.59918 | -67.11324 | 2076 ft | 142 kts | 91° |
| 2026-04-27 21:29 | 10.59851 | -67.10320 | 1866 ft | 142 kts | 92° |
| 2026-04-27 21:29 | 10.59786 | -67.09313 | 1671 ft | 144 kts | 91° |
| 2026-04-27 21:29 | 10.59773 | -67.08307 | 1368 ft | 145 kts | 88° |
| 2026-04-27 21:29 | 10.59786 | -67.07316 | 1067 ft | 136 kts | 89° |
| 2026-04-27 21:30 | 10.59868 | -67.06395 | 861 ft | 125 kts | 81° |
| 2026-04-27 21:30 | 10.60047 | -67.05502 | 812 ft | 133 kts | 78° |
| 2026-04-27 21:30 | 10.60163 | -67.04571 | 731 ft | 136 kts | 88° |
| 2026-04-27 21:30 | 10.60164 | -67.03614 | 641 ft | 136 kts | 88° |
| 2026-04-27 21:31 | 10.60192 | -67.02661 | 502 ft | 132 kts | 88° |
| 2026-04-27 21:31 | 10.60189 | -67.01730 | 387 ft | 132 kts | 86° |
| 2026-04-27 21:31 | 10.60229 | -67.00806 | 233 ft | 128 kts | 87° |
| 2026-04-27 21:31 | 10.60252 | -67.00043 | 219 ft | 80 kts | 88° |
| 2026-04-27 21:32 | 10.60261 | -66.99725 | 208 ft | 24 kts | 92° |
| 2026-04-27 21:32 | 10.60179 | -66.99667 | 207 ft | 0 kts | 181° |
| 2026-04-27 21:33 | 10.60171 | -66.99670 | 208 ft | 6 kts | 200° |
| 2026-04-27 21:34 | 10.60142 | -66.99722 | 211 ft | 9 kts | 261° |
| 2026-04-27 21:34 | 10.60138 | -66.99786 | 213 ft | 9 kts | 268° |
| 2026-04-27 21:34 | 10.60136 | -66.99849 | 223 ft | 9 kts | 268° |
| 2026-04-27 21:34 | 10.60122 | -66.99906 | 222 ft | 8 kts | 227° |
| 2026-04-27 21:35 | 10.60065 | -66.99915 | 219 ft | 8 kts | 177° |
| 2026-04-27 21:35 | 10.60009 | -66.99913 | 218 ft | 8 kts | 179° |
| 2026-04-27 21:35 | 10.59954 | -66.99913 | 218 ft | 8 kts | 179° |
| 2026-04-27 21:35 | 10.59916 | -66.99945 | 219 ft | 8 kts | 254° |
| 2026-04-27 21:36 | 10.59908 | -66.99997 | 219 ft | 7 kts | 254° |
| 2026-04-27 21:36 | 10.59902 | -67.00008 | 220 ft | 0 kts | 225° |
| 2026-04-27 21:36 | 10.59887 | -67.00011 | 219 ft | 4 kts | 186° |
| 2026-04-27 21:36 | 10.59857 | -67.00011 | 219 ft | 4 kts | 180° |
| 2026-04-27 21:37 | 10.59835 | -67.00011 | 219 ft | 0 kts | 179° |